Time;durP1;ratioP1;P1;durP2;ratioP2;P2;SDS_P1;SDS_P2;PMS_P1;PMS_P2;Temp;Humidity;BMP_temperature;BMP_pressure;BME280_temperature;BME280_humidity;BME280_pressure;Samples;Min_cycle;Max_cycle;Signal;HPM_P1;HPM_P2
2024/04/21 00:00:34;;;;;;;2.87;1.00;;;11.30;90.80;;;;;;5469925;26;20552;-47
2024/04/21 00:03:04;;;;;;;1.43;0.97;;;11.30;90.80;;;;;;5449646;26;20522;-48
2024/04/21 00:05:32;;;;;;;1.33;0.70;;;11.30;90.80;;;;;;5464181;26;20517;-48
2024/04/21 00:08:02;;;;;;;2.27;0.90;;;11.30;90.80;;;;;;5463087;26;20508;-49
2024/04/21 00:10:31;;;;;;;3.40;0.90;;;11.30;90.70;;;;;;5454296;26;20519;-46
2024/04/21 00:13:01;;;;;;;3.50;0.97;;;11.30;90.80;;;;;;5455518;25;20998;-49
2024/04/21 00:15:31;;;;;;;4.30;1.17;;;11.30;90.80;;;;;;5467888;26;20840;-48
2024/04/21 00:18:02;;;;;;;2.07;0.73;;;11.30;90.80;;;;;;5477874;26;20874;-47
2024/04/21 00:20:29;;;;;;;2.70;1.37;;;11.30;90.80;;;;;;5477360;26;20621;-48
2024/04/21 00:22:59;;;;;;;2.43;1.10;;;11.30;90.80;;;;;;5462680;26;20452;-45
2024/04/21 00:25:29;;;;;;;1.20;0.73;;;11.30;90.80;;;;;;5443450;26;20530;-49
2024/04/21 00:27:59;;;;;;;3.23;1.33;;;11.30;90.80;;;;;;5464060;26;20473;-47
2024/04/21 00:30:26;;;;;;;1.50;0.80;;;11.20;90.70;;;;;;5460901;26;20477;-50
2024/04/21 00:32:58;;;;;;;2.67;1.10;;;11.30;90.80;;;;;;5443804;26;20567;-48
2024/04/21 00:35:26;;;;;;;2.07;0.80;;;11.30;90.80;;;;;;5476437;26;20648;-48
2024/04/21 00:37:56;;;;;;;1.40;1.00;;;11.30;90.70;;;;;;5451044;26;20511;-48
2024/04/21 00:40:23;;;;;;;2.20;0.90;;;11.20;90.70;;;;;;5472307;26;21021;-47
2024/04/21 00:43:00;;;;;;;2.27;0.90;;;11.30;90.80;;;;;;5451623;26;20560;-48
2024/04/21 00:45:28;;;;;;;2.57;1.10;;;11.30;90.80;;;;;;5468832;26;20520;-47
2024/04/21 00:48:10;;;;;;;3.23;1.10;;;11.20;90.70;;;;;;5456388;26;20894;-48
2024/04/21 00:50:40;;;;;;;1.70;1.00;;;11.20;90.70;;;;;;5446255;26;20506;-49
2024/04/21 00:53:12;;;;;;;1.53;0.73;;;11.30;90.80;;;;;;5448247;26;20526;-48
2024/04/21 00:55:40;;;;;;;3.10;1.10;;;11.20;91.20;;;;;;5459893;26;20455;-48
2024/04/21 00:58:11;;;;;;;3.07;1.27;;;11.20;90.70;;;;;;5474949;25;20964;-49
2024/04/21 01:00:38;;;;;;;1.20;0.80;;;11.20;90.70;;;;;;5472969;26;20458;-48
2024/04/21 01:03:11;;;;;;;4.03;1.10;;;11.20;90.80;;;;;;5467870;26;20563;-50
2024/04/21 01:05:38;;;;;;;1.43;0.80;;;11.20;90.80;;;;;;5448106;26;20461;-48
2024/04/21 01:08:08;;;;;;;1.80;0.90;;;11.20;90.80;;;;;;5468370;26;20456;-52
2024/04/21 01:10:36;;;;;;;2.37;1.10;;;11.20;90.80;;;;;;5456935;26;20516;-49
2024/04/21 01:13:12;;;;;;;2.27;1.20;;;11.20;90.80;;;;;;5446440;26;20558;-49
2024/04/21 01:15:40;;;;;;;2.53;0.90;;;11.20;90.70;;;;;;5441351;26;20536;-48
2024/04/21 01:18:13;;;;;;;2.40;1.10;;;11.20;90.70;;;;;;5456830;26;20533;-48
2024/04/21 01:20:40;;;;;;;3.50;0.70;;;11.20;90.80;;;;;;5446057;26;20465;-48
2024/04/21 01:23:14;;;;;;;1.20;0.90;;;11.20;90.70;;;;;;5453402;26;20570;-49
2024/04/21 01:25:43;;;;;;;1.87;0.80;;;11.20;90.80;;;;;;5441044;26;21085;-47
2024/04/21 01:28:13;;;;;;;1.80;0.83;;;11.20;90.70;;;;;;5470409;26;20511;-48
2024/04/21 01:30:40;;;;;;;2.93;1.00;;;11.20;90.80;;;;;;5473486;26;20519;-47
2024/04/21 01:33:10;;;;;;;2.27;1.03;;;11.20;90.80;;;;;;5446115;26;20451;-48
2024/04/21 01:35:37;;;;;;;2.63;0.93;;;11.20;90.80;;;;;;5460732;26;20458;-48
2024/04/21 01:38:07;;;;;;;2.07;1.10;;;11.20;90.80;;;;;;5466868;26;20546;-48
2024/04/21 01:40:37;;;;;;;1.70;0.93;;;11.20;90.70;;;;;;5471499;26;20544;-48
2024/04/21 01:43:07;;;;;;;1.77;0.70;;;11.20;90.70;;;;;;5446629;26;20455;-47
2024/04/21 01:45:34;;;;;;;2.63;0.90;;;11.20;90.80;;;;;;5463412;26;20461;-46
2024/04/21 01:48:04;;;;;;;1.70;1.10;;;11.20;90.70;;;;;;5454611;26;20453;-47
2024/04/21 01:50:32;;;;;;;2.20;0.90;;;11.20;90.80;;;;;;5463670;26;20468;-49
2024/04/21 01:53:01;;;;;;;1.97;0.70;;;11.20;90.70;;;;;;5438509;26;20470;-50
2024/04/21 01:55:29;;;;;;;1.87;0.77;;;11.20;90.70;;;;;;5455536;26;20460;-49
2024/04/21 01:58:01;;;;;;;1.67;0.70;;;11.20;90.80;;;;;;5459300;25;20458;-47
2024/04/21 02:00:28;;;;;;;1.10;0.60;;;11.20;90.80;;;;;;5461315;26;20460;-48
2024/04/21 02:02:58;;;;;;;3.70;1.20;;;11.20;90.80;;;;;;5469074;26;21025;-48
2024/04/21 02:05:25;;;;;;;3.93;0.80;;;11.20;90.80;;;;;;5474097;26;20467;-49
2024/04/21 02:07:56;;;;;;;1.53;0.97;;;11.20;90.80;;;;;;5476376;26;20458;-49
2024/04/21 02:10:24;;;;;;;1.47;0.90;;;11.20;90.80;;;;;;5473339;26;20533;-48
2024/04/21 02:12:53;;;;;;;1.70;0.80;;;11.20;90.80;;;;;;5475567;26;20455;-49
2024/04/21 02:15:23;;;;;;;2.70;0.80;;;11.20;90.80;;;;;;5466423;26;20516;-49
2024/04/21 02:17:53;;;;;;;1.53;0.80;;;11.20;90.80;;;;;;5475981;26;20457;-49
2024/04/21 02:20:20;;;;;;;1.57;0.70;;;11.20;90.80;;;;;;5475415;26;20462;-48
2024/04/21 02:22:50;;;;;;;2.07;0.90;;;11.20;90.80;;;;;;5475461;26;20500;-47
2024/04/21 02:25:18;;;;;;;1.50;0.80;;;11.20;90.80;;;;;;5473170;26;20462;-47
2024/04/21 02:27:48;;;;;;;1.73;0.70;;;11.20;90.70;;;;;;5474359;26;20812;-48
2024/04/21 02:30:15;;;;;;;2.23;1.10;;;11.20;91.30;;;;;;5462903;26;20471;-49
2024/04/21 02:32:47;;;;;;;4.00;1.07;;;11.10;90.60;;;;;;5475075;26;20450;-48
2024/04/21 02:35:16;;;;;;;2.67;0.90;;;11.10;90.80;;;;;;5477760;26;20510;-48
2024/04/21 02:37:49;;;;;;;3.37;0.90;;;11.10;90.80;;;;;;5478866;26;20497;-47
2024/04/21 02:40:17;;;;;;;3.33;1.07;;;11.10;90.70;;;;;;5463375;25;20473;-48
2024/04/21 02:42:47;;;;;;;1.30;0.70;;;11.10;90.80;;;;;;5479990;26;20465;-48
2024/04/21 02:45:14;;;;;;;2.97;1.47;;;11.10;90.80;;;;;;5479611;26;20478;-48
2024/04/21 02:47:44;;;;;;;1.10;0.80;;;11.10;90.80;;;;;;5491010;26;20579;-48
2024/04/21 02:50:14;;;;;;;2.97;0.90;;;11.10;90.80;;;;;;5477981;26;21136;-48
2024/04/21 02:52:44;;;;;;;2.13;1.13;;;11.10;90.80;;;;;;5497346;26;20530;-49
2024/04/21 02:55:11;;;;;;;1.07;0.67;;;11.10;90.80;;;;;;5474142;25;20525;-47
2024/04/21 02:57:41;;;;;;;2.63;0.70;;;11.10;90.80;;;;;;5466614;26;20463;-49
2024/04/21 03:00:09;;;;;;;1.00;0.60;;;11.10;90.80;;;;;;5468595;26;20465;-49
2024/04/21 03:02:39;;;;;;;4.03;0.90;;;11.10;90.80;;;;;;5478590;26;20787;-48
2024/04/21 03:05:06;;;;;;;2.20;0.97;;;11.10;90.80;;;;;;5478697;26;20582;-47
2024/04/21 03:07:39;;;;;;;1.63;0.77;;;11.10;90.80;;;;;;5463426;26;20555;-52
2024/04/21 03:10:07;;;;;;;2.00;0.80;;;11.10;90.80;;;;;;5496033;26;20524;-47
2024/04/21 03:12:36;;;;;;;1.87;0.80;;;11.10;90.80;;;;;;5463847;26;20454;-48
2024/04/21 03:15:06;;;;;;;2.77;0.70;;;11.10;90.80;;;;;;5475330;26;20517;-48
2024/04/21 03:17:36;;;;;;;2.07;0.87;;;11.10;90.80;;;;;;5470840;26;20574;-49
2024/04/21 03:20:05;;;;;;;2.03;1.00;;;11.10;90.80;;;;;;5489006;26;20506;-51
2024/04/21 03:22:40;;;;;;;1.77;1.20;;;11.10;90.80;;;;;;5477604;26;21103;-49
2024/04/21 03:25:07;;;;;;;1.30;0.80;;;11.10;90.80;;;;;;5495773;26;20467;-47
2024/04/21 03:27:37;;;;;;;1.00;0.60;;;11.10;90.80;;;;;;5466979;26;20848;-47
2024/04/21 03:30:05;;;;;;;1.43;0.80;;;11.10;90.80;;;;;;5474976;26;20481;-47
2024/04/21 03:32:35;;;;;;;3.77;1.20;;;11.10;90.80;;;;;;5476567;26;20508;-48
2024/04/21 03:35:03;;;;;;;1.47;0.90;;;11.10;90.80;;;;;;5478248;26;20456;-48
2024/04/21 03:37:33;;;;;;;1.80;1.20;;;11.00;90.80;;;;;;5475730;26;20464;-49
2024/04/21 03:40:06;;;;;;;2.40;0.90;;;11.00;90.80;;;;;;5479268;26;20524;-48
2024/04/21 03:42:36;;;;;;;1.83;0.70;;;11.00;90.80;;;;;;5477476;26;20517;-47
2024/04/21 03:45:08;;;;;;;1.40;0.80;;;11.00;90.80;;;;;;5475817;26;20536;-48
2024/04/21 03:47:35;;;;;;;3.43;1.20;;;11.00;90.80;;;;;;5477854;26;20453;-48
2024/04/21 03:50:06;;;;;;;1.30;1.00;;;11.00;90.80;;;;;;5474740;26;20530;-47
2024/04/21 03:52:33;;;;;;;1.83;0.70;;;11.00;90.80;;;;;;5476888;26;20465;-49
2024/04/21 03:55:08;;;;;;;1.73;0.63;;;11.00;90.80;;;;;;5486473;25;20517;-48
2024/04/21 03:57:36;;;;;;;2.80;0.77;;;11.00;90.70;;;;;;5464555;26;20468;-46
2024/04/21 04:00:08;;;;;;;3.83;1.30;;;11.00;90.70;;;;;;5468636;26;20471;-48
2024/04/21 04:02:36;;;;;;;0.97;0.60;;;11.00;90.70;;;;;;5463537;26;20464;-48
2024/04/21 04:05:06;;;;;;;1.80;0.93;;;11.00;90.80;;;;;;5475189;26;20517;-47
2024/04/21 04:07:34;;;;;;;1.83;0.93;;;11.00;90.80;;;;;;5465734;26;20528;-48
2024/04/21 04:10:04;;;;;;;1.23;0.67;;;11.00;90.80;;;;;;5475421;26;21021;-48
2024/04/21 04:12:42;;;;;;;1.40;0.90;;;11.00;90.80;;;;;;5476541;26;20516;-47
2024/04/21 04:15:17;;;;;;;1.83;1.00;;;11.00;90.80;;;;;;5475524;26;20554;-48
2024/04/21 04:17:44;;;;;;;1.27;0.80;;;11.00;90.80;;;;;;5478037;26;20567;-47
2024/04/21 04:20:14;;;;;;;2.33;0.60;;;11.00;90.80;;;;;;5478425;26;20521;-48
2024/04/21 04:22:41;;;;;;;2.50;0.90;;;11.00;90.80;;;;;;5474574;26;20462;-48
2024/04/21 04:25:11;;;;;;;2.93;0.83;;;11.00;90.80;;;;;;5476965;26;20477;-48
2024/04/21 04:27:41;;;;;;;1.50;0.70;;;11.00;90.70;;;;;;5463658;26;20842;-49
2024/04/21 04:30:12;;;;;;;3.10;1.10;;;11.00;90.70;;;;;;5466995;26;20485;-48
2024/04/21 04:32:39;;;;;;;1.53;0.63;;;11.00;90.80;;;;;;5463155;26;20467;-48
2024/04/21 04:35:09;;;;;;;1.73;0.80;;;11.00;90.80;;;;;;5477553;26;20457;-48
2024/04/21 04:37:37;;;;;;;7.70;1.10;;;11.00;90.70;;;;;;5464043;26;20519;-47
2024/04/21 04:40:07;;;;;;;1.10;0.50;;;11.00;90.80;;;;;;5468286;26;20530;-48
2024/04/21 04:42:35;;;;;;;1.93;1.00;;;10.90;90.70;;;;;;5462304;26;20895;-47
2024/04/21 04:45:08;;;;;;;1.20;0.77;;;11.00;90.80;;;;;;5475038;26;20509;-46
2024/04/21 04:47:35;;;;;;;1.40;0.73;;;10.90;90.70;;;;;;5463851;26;20871;-49
2024/04/21 04:50:06;;;;;;;1.63;0.80;;;10.90;90.60;;;;;;5475966;26;20461;-47
2024/04/21 04:52:33;;;;;;;2.47;0.83;;;10.90;90.70;;;;;;5468154;26;20461;-47
2024/04/21 04:55:03;;;;;;;1.53;0.80;;;10.90;90.60;;;;;;5474945;26;20870;-47
2024/04/21 04:57:31;;;;;;;1.10;0.60;;;10.90;90.70;;;;;;5476680;26;20470;-48
2024/04/21 05:00:01;;;;;;;1.40;0.90;;;10.90;90.70;;;;;;5466038;26;20473;-47
2024/04/21 05:02:32;;;;;;;1.90;0.80;;;10.90;90.70;;;;;;5476909;26;20469;-47
2024/04/21 05:05:02;;;;;;;1.13;0.70;;;10.90;90.70;;;;;;5474221;26;20450;-47
2024/04/21 05:07:29;;;;;;;1.63;0.77;;;10.90;90.70;;;;;;5475287;26;20597;-49
2024/04/21 05:09:59;;;;;;;1.40;0.90;;;10.90;90.80;;;;;;5478441;26;20471;-47
2024/04/21 05:12:27;;;;;;;2.43;0.70;;;10.90;90.70;;;;;;5473975;26;20462;-48
2024/04/21 05:14:57;;;;;;;2.20;0.97;;;10.90;90.70;;;;;;5468012;26;21017;-49
2024/04/21 05:17:24;;;;;;;1.40;1.00;;;10.90;90.80;;;;;;5473876;26;20517;-49
2024/04/21 05:19:59;;;;;;;1.20;0.60;;;10.90;90.80;;;;;;5475052;26;20834;-49
2024/04/21 05:22:29;;;;;;;4.40;1.17;;;10.90;90.70;;;;;;5470165;26;20908;-48
2024/04/21 05:24:59;;;;;;;4.60;0.80;;;10.90;90.70;;;;;;5475056;26;20521;-47
2024/04/21 05:27:26;;;;;;;1.77;0.80;;;10.90;90.60;;;;;;5467134;26;20577;-48
2024/04/21 05:29:59;;;;;;;1.53;0.63;;;10.90;90.40;;;;;;5468009;26;20476;-51
2024/04/21 05:32:26;;;;;;;1.10;0.63;;;10.90;90.60;;;;;;5474047;26;20516;-47
2024/04/21 05:34:59;;;;;;;2.33;1.23;;;10.90;90.60;;;;;;5474806;26;20490;-47
2024/04/21 05:37:26;;;;;;;1.60;0.90;;;10.80;90.60;;;;;;5472143;26;20879;-49
2024/04/21 05:39:57;;;;;;;0.90;0.50;;;10.90;90.70;;;;;;5475936;26;20464;-48
2024/04/21 05:42:25;;;;;;;1.73;1.00;;;10.80;90.60;;;;;;5474097;26;20794;-47
2024/04/21 05:44:56;;;;;;;1.67;0.90;;;10.80;90.60;;;;;;5465186;26;20461;-48
2024/04/21 05:47:23;;;;;;;1.93;0.90;;;10.80;90.70;;;;;;5428299;26;20502;-47
2024/04/21 05:49:53;;;;;;;1.30;0.80;;;10.80;90.70;;;;;;5502410;25;20504;-49
2024/04/21 05:52:25;;;;;;;2.13;1.40;;;10.80;90.70;;;;;;5474373;26;20509;-47
2024/04/21 05:54:56;;;;;;;1.73;0.80;;;10.90;90.70;;;;;;5477796;26;20520;-48
2024/04/21 05:57:23;;;;;;;1.77;0.90;;;10.80;90.60;;;;;;5446699;26;20493;-46
2024/04/21 05:59:53;;;;;;;1.60;0.90;;;10.80;90.70;;;;;;5479396;26;20871;-47
2024/04/21 06:02:20;;;;;;;1.77;0.77;;;10.80;90.80;;;;;;5473314;26;20454;-47
2024/04/21 06:04:51;;;;;;;1.30;0.70;;;10.80;90.80;;;;;;5474845;26;20462;-47
2024/04/21 06:07:20;;;;;;;1.60;0.80;;;10.80;90.70;;;;;;5466096;26;20577;-47
2024/04/21 06:09:55;;;;;;;1.27;0.63;;;10.80;90.70;;;;;;5492684;26;20466;-48
2024/04/21 06:12:24;;;;;;;1.80;0.87;;;10.80;90.60;;;;;;5474542;26;20458;-47
2024/04/21 06:14:54;;;;;;;1.20;1.00;;;10.80;90.70;;;;;;5465490;26;20464;-47
2024/04/21 06:17:21;;;;;;;1.43;0.60;;;10.80;90.70;;;;;;5472615;26;20555;-47
2024/04/21 06:19:51;;;;;;;1.80;0.93;;;10.80;90.70;;;;;;5475046;26;20524;-49
2024/04/21 06:22:19;;;;;;;1.50;0.70;;;10.80;90.70;;;;;;5473343;26;20569;-49
2024/04/21 06:24:49;;;;;;;1.93;0.60;;;10.80;90.70;;;;;;5468095;26;20466;-47
2024/04/21 06:27:22;;;;;;;2.90;1.03;;;10.80;90.70;;;;;;5470146;26;20452;-49
2024/04/21 06:29:53;;;;;;;1.13;0.70;;;10.80;90.60;;;;;;5464246;26;20592;-49
2024/04/21 06:32:21;;;;;;;3.33;0.90;;;10.80;90.70;;;;;;5475174;26;20461;-49
2024/04/21 06:34:53;;;;;;;2.07;0.93;;;10.80;90.60;;;;;;5476329;26;20855;-47
2024/04/21 06:37:21;;;;;;;2.00;0.70;;;10.80;90.70;;;;;;5470607;26;21075;-48
2024/04/21 06:39:56;;;;;;;1.10;0.63;;;10.80;90.60;;;;;;5474557;26;21003;-48
2024/04/21 06:42:32;;;;;;;3.10;1.07;;;10.80;90.70;;;;;;5472412;26;20561;-49
2024/04/21 06:44:59;;;;;;;1.97;1.03;;;10.80;90.50;;;;;;5468048;26;20556;-47
2024/04/21 06:47:29;;;;;;;2.97;1.40;;;10.80;90.50;;;;;;5471362;26;21182;-48
2024/04/21 06:49:57;;;;;;;1.50;1.03;;;10.80;90.60;;;;;;5485516;25;20576;-48
2024/04/21 06:52:27;;;;;;;2.50;1.00;;;10.80;90.60;;;;;;5472232;26;20866;-48
2024/04/21 06:54:54;;;;;;;1.63;0.70;;;10.80;90.60;;;;;;5465676;26;20466;-48
2024/04/21 06:57:24;;;;;;;3.40;0.80;;;10.80;90.60;;;;;;5473334;26;20455;-48
2024/04/21 06:59:54;;;;;;;2.07;0.87;;;10.80;90.50;;;;;;5472124;26;20528;-49
2024/04/21 07:02:24;;;;;;;1.10;0.70;;;10.80;90.60;;;;;;5480348;26;20506;-47
2024/04/21 07:04:52;;;;;;;1.23;0.67;;;10.80;90.50;;;;;;5462237;26;20463;-47
2024/04/21 07:07:22;;;;;;;1.83;0.70;;;10.80;90.60;;;;;;5413825;26;20473;-48
2024/04/21 07:09:49;;;;;;;2.33;0.83;;;10.80;90.70;;;;;;5442288;26;20811;-49
2024/04/21 07:12:19;;;;;;;2.83;0.80;;;10.80;90.70;;;;;;5478336;26;20471;-47
2024/04/21 07:14:47;;;;;;;1.07;0.60;;;10.80;90.70;;;;;;5455895;26;20525;-47
2024/04/21 07:17:20;;;;;;;1.43;0.97;;;10.80;90.70;;;;;;5473255;26;20515;-48
2024/04/21 07:19:47;;;;;;;1.10;0.50;;;10.80;90.60;;;;;;5475908;26;21072;-47
2024/04/21 07:22:17;;;;;;;1.43;0.80;;;10.80;90.60;;;;;;5476173;26;20449;-47
2024/04/21 07:24:45;;;;;;;2.10;0.90;;;10.80;90.40;;;;;;5465781;26;20454;-48
2024/04/21 07:27:15;;;;;;;1.60;0.70;;;10.80;90.60;;;;;;5477081;26;20497;-49
2024/04/21 07:29:42;;;;;;;1.67;0.80;;;10.80;90.60;;;;;;5455872;26;20524;-48
2024/04/21 07:32:12;;;;;;;1.30;0.70;;;10.80;90.50;;;;;;5475969;26;21023;-47
2024/04/21 07:34:42;;;;;;;0.97;0.50;;;10.80;90.60;;;;;;5472147;26;20520;-48
2024/04/21 07:37:12;;;;;;;1.40;0.90;;;10.80;90.60;;;;;;5463174;26;20930;-48
2024/04/21 07:39:39;;;;;;;1.10;0.70;;;10.80;90.60;;;;;;5463984;26;20462;-47
2024/04/21 07:42:10;;;;;;;1.30;0.90;;;10.80;90.50;;;;;;5475615;26;20447;-50
2024/04/21 07:44:38;;;;;;;1.63;0.60;;;10.80;90.60;;;;;;5474989;26;20570;-47
2024/04/21 07:47:08;;;;;;;2.80;1.20;;;10.80;90.60;;;;;;5476638;26;20455;-47
2024/04/21 07:49:36;;;;;;;1.07;0.70;;;10.80;90.60;;;;;;5485930;25;20457;-48
2024/04/21 07:52:10;;;;;;;2.10;0.93;;;10.80;90.60;;;;;;5477143;26;20460;-49
2024/04/21 07:54:37;;;;;;;1.83;0.73;;;10.80;90.60;;;;;;5442912;26;20459;-49
2024/04/21 07:57:07;;;;;;;1.43;0.80;;;10.80;90.50;;;;;;5466944;26;20458;-48
2024/04/21 07:59:35;;;;;;;3.77;0.93;;;10.80;90.50;;;;;;5465205;26;20507;-47
2024/04/21 08:02:05;;;;;;;1.63;0.90;;;10.80;90.50;;;;;;5473497;26;20460;-47
2024/04/21 08:04:32;;;;;;;1.60;0.70;;;10.80;90.20;;;;;;5475220;26;21014;-49
2024/04/21 08:07:03;;;;;;;1.43;0.80;;;10.80;90.40;;;;;;5467906;26;20462;-47
2024/04/21 08:09:34;;;;;;;1.27;0.70;;;10.80;90.40;;;;;;5473968;26;20565;-48
2024/04/21 08:12:05;;;;;;;1.53;0.67;;;10.80;90.40;;;;;;5472205;26;20521;-48
2024/04/21 08:14:32;;;;;;;1.73;0.87;;;10.80;90.50;;;;;;5475808;26;21028;-48
2024/04/21 08:17:03;;;;;;;3.03;1.00;;;10.80;90.40;;;;;;5460179;26;20545;-47
2024/04/21 08:19:30;;;;;;;1.20;0.60;;;10.80;90.90;;;;;;5472731;26;20454;-48
2024/04/21 08:22:00;;;;;;;2.40;0.70;;;10.80;90.50;;;;;;5474190;26;20512;-47
2024/04/21 08:24:29;;;;;;;1.70;0.80;;;10.80;90.50;;;;;;5469982;26;20854;-49
2024/04/21 08:27:01;;;;;;;3.20;1.03;;;10.80;91.00;;;;;;5476519;26;20460;-47
2024/04/21 08:29:29;;;;;;;3.73;0.90;;;10.80;90.50;;;;;;5466927;26;20504;-49
2024/04/21 08:31:59;;;;;;;4.53;1.10;;;10.70;90.40;;;;;;5473477;26;20469;-48
2024/04/21 08:34:27;;;;;;;1.67;0.97;;;10.80;90.20;;;;;;5461020;26;20530;-49
2024/04/21 08:36:57;;;;;;;1.47;0.70;;;10.70;90.30;;;;;;5475843;26;21017;-47
2024/04/21 08:39:24;;;;;;;2.70;1.27;;;10.80;90.50;;;;;;5474184;26;20551;-47
2024/04/21 08:41:56;;;;;;;2.83;0.90;;;10.70;90.40;;;;;;5473278;26;20468;-47
2024/04/21 08:44:28;;;;;;;1.37;0.90;;;10.70;90.20;;;;;;5468377;26;20512;-47
2024/04/21 08:46:59;;;;;;;4.20;1.30;;;10.70;90.40;;;;;;5475311;26;20504;-47
2024/04/21 08:49:28;;;;;;;2.03;1.07;;;10.70;90.20;;;;;;5488957;25;21892;-47
2024/04/21 08:52:01;;;;;;;1.60;0.93;;;10.80;90.80;;;;;;5469394;26;20483;-48
2024/04/21 08:54:29;;;;;;;2.07;0.83;;;10.70;90.30;;;;;;5475585;26;21007;-47
2024/04/21 08:57:02;;;;;;;2.20;1.13;;;10.70;90.30;;;;;;5474852;26;20871;-47
2024/04/21 08:59:40;;;;;;;3.50;1.10;;;10.70;90.30;;;;;;5463551;26;20467;-46
2024/04/21 09:02:11;;;;;;;2.27;1.47;;;10.70;90.30;;;;;;5474992;26;21030;-50
2024/04/21 09:04:41;;;;;;;2.30;1.40;;;10.70;90.10;;;;;;5474030;26;20465;-48
2024/04/21 09:07:13;;;;;;;2.30;1.20;;;10.70;90.00;;;;;;5475455;26;20453;-47
2024/04/21 09:09:42;;;;;;;1.10;0.93;;;10.60;90.20;;;;;;5476075;26;20508;-47
2024/04/21 09:12:15;;;;;;;4.63;1.47;;;10.60;90.00;;;;;;5475438;26;21016;-48
2024/04/21 09:14:45;;;;;;;1.80;0.93;;;10.60;90.00;;;;;;5456475;26;20873;-47
2024/04/21 09:17:15;;;;;;;2.13;1.40;;;10.60;89.70;;;;;;5473118;26;20459;-48
2024/04/21 09:19:42;;;;;;;1.37;0.80;;;10.60;89.40;;;;;;5464496;26;20511;-48
2024/04/21 09:22:12;;;;;;;2.00;1.30;;;10.60;89.90;;;;;;5475272;26;20482;-48
2024/04/21 09:24:40;;;;;;;4.30;1.03;;;10.60;89.70;;;;;;5473094;26;20446;-48
2024/04/21 09:27:17;;;;;;;1.50;1.13;;;10.60;90.00;;;;;;5469606;26;20781;-48
2024/04/21 09:29:48;;;;;;;2.20;0.80;;;10.60;89.70;;;;;;5461622;26;20575;-46
2024/04/21 09:32:20;;;;;;;3.23;1.03;;;10.60;89.50;;;;;;5467836;26;21107;-48
2024/04/21 09:34:47;;;;;;;1.93;1.27;;;10.60;89.50;;;;;;5473014;26;20876;-47
2024/04/21 09:37:20;;;;;;;3.93;1.57;;;10.60;89.60;;;;;;5471302;26;20506;-48
2024/04/21 09:39:49;;;;;;;6.90;2.50;;;10.60;90.00;;;;;;5455447;26;20555;-47
2024/04/21 09:42:21;;;;;;;2.63;1.50;;;10.60;90.00;;;;;;5473824;26;20468;-49
2024/04/21 09:44:54;;;;;;;1.73;1.20;;;10.60;89.50;;;;;;5470415;26;20462;-49
2024/04/21 09:47:25;;;;;;;2.53;1.37;;;10.60;90.00;;;;;;5471459;26;20461;-48
2024/04/21 09:49:55;;;;;;;1.80;1.10;;;10.60;89.50;;;;;;5487097;25;21027;-48
2024/04/21 09:52:29;;;;;;;2.43;1.50;;;10.60;89.50;;;;;;5472048;26;20462;-47
2024/04/21 09:54:58;;;;;;;1.90;1.40;;;10.60;89.80;;;;;;5463928;26;21127;-47
2024/04/21 09:57:34;;;;;;;2.50;1.40;;;10.60;90.00;;;;;;5469332;26;21069;-49
2024/04/21 10:00:07;;;;;;;2.63;1.50;;;10.60;89.90;;;;;;5473780;26;20475;-47
2024/04/21 10:02:40;;;;;;;3.83;1.20;;;10.60;89.10;;;;;;5473549;26;20823;-48
2024/04/21 10:05:10;;;;;;;1.87;1.30;;;10.60;89.30;;;;;;5472606;26;20875;-47
2024/04/21 10:07:42;;;;;;;2.37;1.60;;;10.60;89.40;;;;;;5462117;26;20451;-47
2024/04/21 10:10:11;;;;;;;2.03;1.00;;;10.60;88.70;;;;;;5473331;26;20464;-49
2024/04/21 10:12:42;;;;;;;2.23;1.50;;;10.60;88.70;;;;;;5464299;26;20524;-48
2024/04/21 10:15:17;;;;;;;1.70;1.10;;;10.60;89.60;;;;;;5453039;26;21102;-48
2024/04/21 10:17:56;;;;;;;2.27;1.03;;;10.60;89.10;;;;;;5482880;26;20546;-47
2024/04/21 10:20:29;;;;;;;1.93;1.30;;;10.70;90.00;;;;;;5472321;26;20510;-47
2024/04/21 10:23:06;;;;;;;1.70;0.97;;;10.70;89.80;;;;;;5470696;26;20479;-48
2024/04/21 10:25:34;;;;;;;2.30;1.23;;;10.60;89.80;;;;;;5471729;26;20540;-48
2024/04/21 10:28:06;;;;;;;1.73;1.20;;;10.70;90.00;;;;;;5475473;26;20865;-48
2024/04/21 10:30:37;;;;;;;1.97;1.20;;;10.70;90.00;;;;;;5463640;26;20525;-48
2024/04/21 10:33:10;;;;;;;2.10;1.20;;;10.70;89.60;;;;;;5471807;26;21015;-48
2024/04/21 10:35:40;;;;;;;2.30;1.40;;;10.70;89.70;;;;;;5473908;26;20517;-48
2024/04/21 10:38:12;;;;;;;2.40;0.93;;;10.70;90.00;;;;;;5475771;26;20576;-50
2024/04/21 10:40:41;;;;;;;2.27;1.20;;;10.70;90.00;;;;;;5470035;26;21111;-48
2024/04/21 10:43:11;;;;;;;1.73;1.27;;;10.70;90.10;;;;;;5474750;26;21026;-47
2024/04/21 10:45:42;;;;;;;1.50;1.10;;;10.70;90.00;;;;;;5469483;26;20887;-48
2024/04/21 10:48:12;;;;;;;2.50;1.00;;;10.70;90.00;;;;;;5472745;26;21023;-47
2024/04/21 10:50:42;;;;;;;2.13;1.30;;;10.70;90.00;;;;;;5471958;26;20524;-48
2024/04/21 10:53:12;;;;;;;1.70;1.23;;;10.70;90.10;;;;;;5470996;26;20917;-47
2024/04/21 10:55:40;;;;;;;1.57;1.10;;;10.70;90.10;;;;;;5472700;26;20477;-48
2024/04/21 10:58:11;;;;;;;1.80;1.30;;;10.80;90.10;;;;;;5473177;26;20466;-47
2024/04/21 11:00:41;;;;;;;1.67;1.13;;;10.80;90.00;;;;;;5479672;26;20813;-48
2024/04/21 11:03:11;;;;;;;1.47;1.30;;;10.70;89.50;;;;;;5473735;26;20445;-47
2024/04/21 11:05:45;;;;;;;1.83;1.10;;;10.70;89.30;;;;;;5473199;26;20527;-48
2024/04/21 11:08:16;;;;;;;1.93;1.07;;;10.80;89.80;;;;;;5472763;26;20474;-48
2024/04/21 11:10:43;;;;;;;1.97;1.30;;;10.80;89.80;;;;;;5486719;26;20927;-48
2024/04/21 11:13:13;;;;;;;1.43;0.97;;;10.80;89.90;;;;;;5481944;26;20518;-47
2024/04/21 11:15:43;;;;;;;1.83;1.20;;;10.80;89.40;;;;;;5481137;26;20453;-47
2024/04/21 11:18:15;;;;;;;1.67;1.37;;;10.80;89.80;;;;;;5479878;26;20462;-48
2024/04/21 11:20:43;;;;;;;1.47;1.13;;;10.80;87.80;;;;;;5475145;26;20471;-48
2024/04/21 11:23:14;;;;;;;1.83;1.30;;;10.80;88.40;;;;;;5477623;26;20567;-48
2024/04/21 11:25:41;;;;;;;1.60;1.00;;;10.80;89.20;;;;;;5474219;26;20534;-48
2024/04/21 11:28:12;;;;;;;1.60;0.97;;;10.80;88.30;;;;;;5483543;26;20515;-48
2024/04/21 11:30:40;;;;;;;2.53;1.20;;;10.80;88.80;;;;;;5466213;26;20468;-47
2024/04/21 11:33:13;;;;;;;2.00;1.47;;;10.80;89.30;;;;;;5460612;26;20523;-49
2024/04/21 11:35:41;;;;;;;1.53;1.13;;;10.80;87.50;;;;;;5455628;26;20460;-48
2024/04/21 11:38:11;;;;;;;5.33;1.47;;;10.80;87.90;;;;;;5472397;26;20456;-47
2024/04/21 11:40:38;;;;;;;1.70;1.20;;;10.80;89.40;;;;;;5477292;26;20581;-48
2024/04/21 11:43:08;;;;;;;2.20;1.10;;;10.80;88.40;;;;;;5474827;26;20561;-48
2024/04/21 11:45:42;;;;;;;1.97;1.40;;;10.80;89.30;;;;;;5466608;26;21082;-47
2024/04/21 11:48:14;;;;;;;1.57;0.83;;;10.80;89.00;;;;;;5475539;26;20454;-46
2024/04/21 11:50:42;;;;;;;1.80;1.17;;;10.80;89.50;;;;;;5477678;26;21297;-48
2024/04/21 11:53:14;;;;;;;1.20;1.00;;;10.80;89.60;;;;;;5474720;26;21019;-48
2024/04/21 11:55:42;;;;;;;2.17;1.30;;;10.80;90.40;;;;;;5483799;26;20545;-48
2024/04/21 11:58:12;;;;;;;2.47;1.60;;;10.80;90.00;;;;;;5505437;26;20533;-47
2024/04/21 12:00:42;;;;;;;1.40;1.17;;;10.80;89.80;;;;;;5483433;26;20466;-47
2024/04/21 12:03:12;;;;;;;1.63;1.53;;;10.80;90.00;;;;;;5468580;26;20468;-48
2024/04/21 12:05:44;;;;;;;1.90;1.33;;;10.80;90.00;;;;;;5459599;26;20521;-47
2024/04/21 12:08:11;;;;;;;2.03;1.00;;;10.80;90.00;;;;;;5490833;26;20454;-48
2024/04/21 12:10:41;;;;;;;1.37;1.20;;;10.80;90.00;;;;;;5464199;26;20479;-49
2024/04/21 12:13:09;;;;;;;4.73;1.30;;;10.80;90.00;;;;;;5489005;26;20458;-49
2024/04/21 12:15:39;;;;;;;1.80;1.17;;;10.80;90.00;;;;;;5478008;26;21094;-48
2024/04/21 12:18:07;;;;;;;1.67;1.57;;;10.80;90.00;;;;;;5477425;26;20495;-47
2024/04/21 12:20:40;;;;;;;2.07;1.20;;;10.80;90.00;;;;;;5442107;26;20509;-48
2024/04/21 12:23:10;;;;;;;1.73;1.27;;;10.80;90.00;;;;;;5471084;26;20557;-48
2024/04/21 12:25:40;;;;;;;1.80;1.17;;;10.80;90.00;;;;;;5472021;26;20438;-48
2024/04/21 12:28:07;;;;;;;3.30;1.00;;;10.80;90.00;;;;;;5436179;26;20868;-50
2024/04/21 12:30:38;;;;;;;1.60;1.30;;;10.80;90.00;;;;;;5469018;26;20474;-48
2024/04/21 12:33:10;;;;;;;2.37;1.40;;;10.80;89.90;;;;;;5470221;26;20456;-47
2024/04/21 12:35:44;;;;;;;1.60;1.00;;;10.80;88.50;;;;;;5469316;26;20789;-47
2024/04/21 12:38:11;;;;;;;1.37;0.90;;;10.80;89.30;;;;;;5471899;26;20466;-48
2024/04/21 12:40:42;;;;;;;1.53;1.17;;;10.80;90.00;;;;;;5441690;26;20458;-49
2024/04/21 12:43:10;;;;;;;2.07;1.50;;;10.80;90.00;;;;;;5491568;26;20454;-48
2024/04/21 12:45:40;;;;;;;1.63;0.97;;;10.80;89.80;;;;;;5482830;26;20494;-48
2024/04/21 12:48:07;;;;;;;1.63;1.00;;;10.80;90.00;;;;;;5489622;26;20461;-50
2024/04/21 12:50:37;;;;;;;1.23;1.00;;;10.80;90.00;;;;;;5459752;26;21096;-49
2024/04/21 12:53:07;;;;;;;1.97;1.17;;;10.80;90.00;;;;;;5487563;26;20451;-48
2024/04/21 12:55:38;;;;;;;1.30;1.00;;;10.80;90.10;;;;;;5469712;26;20508;-48
2024/04/21 12:58:06;;;;;;;1.40;0.87;;;10.80;90.10;;;;;;5469617;26;20473;-48
2024/04/21 13:00:37;;;;;;;1.10;0.63;;;10.80;90.00;;;;;;5477675;26;20874;-48